createdAt,value
2018-07-15T00:02:07.988Z,21.40
2018-07-15T00:04:36.650Z,21.32
2018-07-15T00:07:05.521Z,21.26
2018-07-15T00:09:34.135Z,21.22
2018-07-15T00:12:02.823Z,21.29
2018-07-15T00:14:31.517Z,21.39
2018-07-15T00:17:00.161Z,21.33
2018-07-15T00:19:28.776Z,21.25
2018-07-15T00:21:57.616Z,21.30
2018-07-15T00:24:26.961Z,21.38
2018-07-15T00:26:55.553Z,21.27
2018-07-15T00:29:24.602Z,21.31
2018-07-15T00:31:53.203Z,21.25
2018-07-15T00:34:21.914Z,21.25
2018-07-15T00:36:50.618Z,21.26
2018-07-15T00:39:19.290Z,21.07
2018-07-15T00:41:47.902Z,20.95
2018-07-15T00:44:16.562Z,20.76
2018-07-15T00:46:45.879Z,20.88
2018-07-15T00:49:15.081Z,20.69
2018-07-15T00:51:43.694Z,20.52
2018-07-15T00:54:12.685Z,20.56
2018-07-15T00:56:41.317Z,20.51
2018-07-15T00:59:09.918Z,20.42
2018-07-15T01:01:38.621Z,20.31
2018-07-15T01:04:07.737Z,20.25
2018-07-15T01:06:36.468Z,20.30
2018-07-15T01:09:07.310Z,20.16
2018-07-15T01:11:35.946Z,20.02
2018-07-15T01:14:04.606Z,20.25
2018-07-15T01:16:33.197Z,20.25
2018-07-15T01:19:01.803Z,20.17
2018-07-15T01:21:30.449Z,20.18
2018-07-15T01:23:59.112Z,20.07
2018-07-15T01:26:27.733Z,20.07
2018-07-15T01:28:56.376Z,20.02
2018-07-15T01:31:25.058Z,19.95
2018-07-15T01:33:54.072Z,19.91
2018-07-15T01:36:22.793Z,19.96
2018-07-15T01:38:51.406Z,19.82
2018-07-15T01:41:20.147Z,19.73
2018-07-15T01:43:48.744Z,19.79
2018-07-15T01:46:17.883Z,19.63
2018-07-15T01:48:46.499Z,19.56
2018-07-15T01:51:15.094Z,19.52
2018-07-15T01:53:43.743Z,19.81
2018-07-15T01:56:12.365Z,19.99
2018-07-15T01:58:40.995Z,19.88
2018-07-15T02:01:09.603Z,19.94
2018-07-15T02:03:38.184Z,20.07
2018-07-15T02:06:07.116Z,20.00
2018-07-15T02:08:35.694Z,19.95
2018-07-15T02:11:04.321Z,19.70
2018-07-15T02:13:32.934Z,19.73
2018-07-15T02:16:01.540Z,19.74
2018-07-15T02:18:30.123Z,19.63
2018-07-15T02:20:58.714Z,19.63
2018-07-15T02:23:27.322Z,19.63
2018-07-15T02:25:55.983Z,19.52
2018-07-15T02:28:24.589Z,19.37
2018-07-15T02:30:53.180Z,19.39
2018-07-15T02:33:21.803Z,19.64
2018-07-15T02:35:50.457Z,19.55
2018-07-15T02:38:19.136Z,19.77
2018-07-15T02:40:47.730Z,19.89
2018-07-15T02:43:16.381Z,19.89
2018-07-15T02:45:45.002Z,19.78
2018-07-15T02:48:13.687Z,19.76
2018-07-15T02:50:42.288Z,19.79
2018-07-15T02:53:10.950Z,19.72
2018-07-15T02:55:39.568Z,19.74
2018-07-15T02:58:08.234Z,19.81
2018-07-15T03:00:36.865Z,19.67
2018-07-15T03:03:05.494Z,19.74
2018-07-15T03:05:34.069Z,19.65
2018-07-15T03:08:02.653Z,19.74
2018-07-15T03:10:31.260Z,19.82
2018-07-15T03:12:59.854Z,19.72
2018-07-15T03:15:29.684Z,19.88
2018-07-15T03:17:58.270Z,19.83
2018-07-15T03:20:26.945Z,19.61
2018-07-15T03:22:55.577Z,19.54
2018-07-15T03:25:24.208Z,19.46
2018-07-15T03:27:52.801Z,19.41
2018-07-15T03:30:21.430Z,19.45
2018-07-15T03:32:50.168Z,19.41
2018-07-15T03:35:18.797Z,19.47
2018-07-15T03:37:47.560Z,19.52
2018-07-15T03:40:16.332Z,19.43
2018-07-15T03:42:45.094Z,19.64
2018-07-15T03:45:13.897Z,19.59
2018-07-15T03:47:42.479Z,19.55
2018-07-15T03:50:11.882Z,19.50
2018-07-15T03:52:40.465Z,19.55
2018-07-15T03:55:09.077Z,19.55
2018-07-15T03:57:37.695Z,19.55
2018-07-15T04:00:06.420Z,19.55
2018-07-15T04:02:35.206Z,19.62
2018-07-15T04:05:03.891Z,19.69
2018-07-15T04:07:32.517Z,19.71
2018-07-15T04:10:01.136Z,19.71
2018-07-15T04:12:29.719Z,19.75
2018-07-15T04:14:58.317Z,19.98
2018-07-15T04:17:26.940Z,20.24
2018-07-15T04:19:55.710Z,20.25
2018-07-15T04:22:24.309Z,20.15
2018-07-15T04:24:52.993Z,20.19
2018-07-15T04:27:21.624Z,20.34
2018-07-15T04:29:50.309Z,20.33
2018-07-15T04:32:18.918Z,20.39
2018-07-15T04:34:47.561Z,20.48
2018-07-15T04:37:16.162Z,20.47
2018-07-15T04:39:44.788Z,20.48
2018-07-15T04:42:13.522Z,20.53
2018-07-15T04:44:42.146Z,20.72
2018-07-15T04:47:10.722Z,20.72
2018-07-15T04:49:39.476Z,20.71
2018-07-15T04:52:08.682Z,20.72
2018-07-15T04:54:37.993Z,20.82
2018-07-15T04:57:06.627Z,20.91
2018-07-15T04:59:35.209Z,21.02
2018-07-15T05:02:03.928Z,21.04
2018-07-15T05:04:32.515Z,21.07
2018-07-15T05:07:01.112Z,21.04
2018-07-15T05:09:30.187Z,21.14
2018-07-15T05:11:58.778Z,21.22
2018-07-15T05:14:27.384Z,21.29
2018-07-15T05:16:55.961Z,21.33
2018-07-15T05:19:24.581Z,21.41
2018-07-15T05:21:53.339Z,21.56
2018-07-15T05:24:22.042Z,21.62
2018-07-15T05:26:50.773Z,21.63
2018-07-15T05:29:19.414Z,21.63
2018-07-15T05:31:48.129Z,21.68
2018-07-15T05:34:16.774Z,21.60
2018-07-15T05:36:45.487Z,21.58
2018-07-15T05:39:14.149Z,21.60
2018-07-15T05:41:43.063Z,21.71
2018-07-15T05:44:11.736Z,21.82
2018-07-15T05:46:40.361Z,21.93
2018-07-15T05:49:09.118Z,22.04
2018-07-15T05:51:37.712Z,22.23
2018-07-15T05:54:06.341Z,22.30
2018-07-15T05:56:35.070Z,22.36
2018-07-15T05:59:03.663Z,22.34
2018-07-15T06:01:32.288Z,22.44
2018-07-15T06:04:00.886Z,22.55
2018-07-15T06:06:29.610Z,22.74
2018-07-15T06:08:58.188Z,22.79
2018-07-15T06:11:26.931Z,22.81
2018-07-15T06:13:55.554Z,22.92
2018-07-15T06:16:24.183Z,22.99
2018-07-15T06:18:52.854Z,23.07
2018-07-15T06:21:21.431Z,23.08
2018-07-15T06:23:50.238Z,22.98
2018-07-15T06:26:18.930Z,23.14
2018-07-15T06:28:47.776Z,23.21
2018-07-15T06:31:16.468Z,23.29
2018-07-15T06:33:45.091Z,23.26
2018-07-15T06:36:13.705Z,23.31
2018-07-15T06:38:42.378Z,23.50
2018-07-15T06:41:10.996Z,23.60
2018-07-15T06:43:39.690Z,23.78
2018-07-15T06:46:08.365Z,24.01
2018-07-15T06:48:37.099Z,24.02
2018-07-15T06:51:05.768Z,24.10
2018-07-15T06:53:34.451Z,23.99
2018-07-15T06:56:03.307Z,23.94
2018-07-15T06:58:31.861Z,24.06
2018-07-15T07:01:00.489Z,24.07
2018-07-15T07:03:29.199Z,24.03
2018-07-15T07:05:57.809Z,24.21
2018-07-15T07:08:26.461Z,24.36
2018-07-15T07:10:55.238Z,24.39
2018-07-15T07:13:23.865Z,24.52
2018-07-15T07:15:52.575Z,24.58
2018-07-15T07:18:21.295Z,24.31
2018-07-15T07:20:49.921Z,24.23
2018-07-15T07:23:18.563Z,24.33
2018-07-15T07:25:47.247Z,24.39
2018-07-15T07:28:15.909Z,24.27
2018-07-15T07:30:44.591Z,24.51
2018-07-15T07:33:13.219Z,24.56
2018-07-15T07:35:41.851Z,24.55
2018-07-15T07:38:11.233Z,24.48
2018-07-15T07:40:40.044Z,24.53
2018-07-15T07:43:08.987Z,24.56
2018-07-15T07:45:37.657Z,24.51
2018-07-15T07:48:06.392Z,24.55
2018-07-15T07:50:35.765Z,24.58
2018-07-15T07:53:04.361Z,24.62
2018-07-15T07:55:32.946Z,24.76
2018-07-15T07:58:01.609Z,24.74
2018-07-15T08:00:30.354Z,24.77
2018-07-15T08:02:59.035Z,24.89
2018-07-15T08:05:27.716Z,24.80
2018-07-15T08:07:56.361Z,24.92
2018-07-15T08:10:25.019Z,24.83
2018-07-15T08:12:53.701Z,24.77
2018-07-15T08:15:22.353Z,24.88
2018-07-15T08:17:50.960Z,24.80
2018-07-15T08:20:19.606Z,24.81
2018-07-15T08:22:48.218Z,24.82
2018-07-15T08:25:16.833Z,24.84
2018-07-15T08:27:45.473Z,24.74
2018-07-15T08:30:25.053Z,24.94
2018-07-15T08:32:53.753Z,24.67
2018-07-15T08:35:22.348Z,24.77
2018-07-15T08:37:51.030Z,24.82
2018-07-15T08:40:19.914Z,24.94
2018-07-15T08:42:48.573Z,25.11
2018-07-15T08:45:17.403Z,25.02
2018-07-15T08:47:46.049Z,25.16
2018-07-15T08:50:14.680Z,25.13
2018-07-15T08:52:43.849Z,25.11
2018-07-15T08:55:12.666Z,25.55
2018-07-15T08:57:41.376Z,25.51
2018-07-15T09:00:10.097Z,25.82
2018-07-15T09:02:38.724Z,25.50
2018-07-15T09:05:07.471Z,25.58
2018-07-15T09:07:36.072Z,25.87
2018-07-15T09:10:04.825Z,25.92
2018-07-15T09:12:33.483Z,26.00
2018-07-15T09:15:02.055Z,26.05
2018-07-15T09:17:30.758Z,26.11
2018-07-15T09:19:59.403Z,26.03
2018-07-15T09:22:28.046Z,26.01
2018-07-15T09:24:56.685Z,25.72
2018-07-15T09:27:25.297Z,25.84
2018-07-15T09:29:53.918Z,25.81
2018-07-15T09:32:22.578Z,25.87
2018-07-15T09:34:51.206Z,25.85
2018-07-15T09:37:19.822Z,25.76
2018-07-15T09:39:48.464Z,25.81
2018-07-15T09:42:17.110Z,25.69
2018-07-15T09:44:45.819Z,25.61
2018-07-15T09:47:14.438Z,25.27
2018-07-15T09:49:43.041Z,25.48
2018-07-15T09:52:11.625Z,25.77
2018-07-15T09:54:41.115Z,25.67
2018-07-15T09:57:09.762Z,25.75
2018-07-15T09:59:38.328Z,25.92
2018-07-15T10:02:07.056Z,26.00
2018-07-15T10:04:35.782Z,26.07
2018-07-15T10:07:04.336Z,25.85
2018-07-15T10:09:32.977Z,26.06
2018-07-15T10:12:01.650Z,26.19
2018-07-15T10:14:30.360Z,26.35
2018-07-15T10:16:58.953Z,26.42
2018-07-15T10:19:27.718Z,26.47
2018-07-15T10:21:56.366Z,26.44
2018-07-15T10:24:24.989Z,26.48
2018-07-15T10:26:53.650Z,26.77
2018-07-15T10:29:23.004Z,26.86
2018-07-15T10:31:51.663Z,26.73
2018-07-15T10:34:20.310Z,27.04
2018-07-15T10:36:48.955Z,27.26
2018-07-15T10:39:17.614Z,27.28
2018-07-15T10:41:46.236Z,27.48
2018-07-15T10:44:14.997Z,27.51
2018-07-15T10:46:43.682Z,27.53
2018-07-15T10:49:12.603Z,27.43
2018-07-15T10:51:41.237Z,27.78
2018-07-15T10:54:09.953Z,28.08
2018-07-15T10:56:38.617Z,27.87
2018-07-15T10:59:07.280Z,28.16
2018-07-15T11:01:36.590Z,28.35
2018-07-15T11:04:05.282Z,28.30
2018-07-15T11:06:34.369Z,28.06
2018-07-15T11:09:03.170Z,27.98
2018-07-15T11:11:31.851Z,27.83
2018-07-15T11:14:00.527Z,27.87
2018-07-15T11:16:29.250Z,28.25
2018-07-15T11:18:57.963Z,28.56
2018-07-15T11:21:26.616Z,28.81
2018-07-15T11:23:55.249Z,28.87
2018-07-15T11:26:23.933Z,28.66
2018-07-15T11:28:52.730Z,28.77
2018-07-15T11:31:21.359Z,29.08
2018-07-15T11:33:50.032Z,29.23
2018-07-15T11:36:18.651Z,29.03
2018-07-15T11:38:47.310Z,28.66
2018-07-15T11:41:16.082Z,29.04
2018-07-15T11:43:44.807Z,29.30
2018-07-15T11:46:13.582Z,29.49
2018-07-15T11:48:42.297Z,29.59
2018-07-15T11:51:10.967Z,29.32
2018-07-15T11:53:39.699Z,29.25
2018-07-15T11:56:08.389Z,29.48
2018-07-15T11:58:37.106Z,29.74
2018-07-15T12:01:06.514Z,30.01
2018-07-15T12:03:35.191Z,30.18
2018-07-15T12:06:03.899Z,29.63
2018-07-15T12:08:32.681Z,29.49
2018-07-15T12:11:01.589Z,29.56
2018-07-15T12:13:30.192Z,29.92
2018-07-15T12:15:58.859Z,30.25
2018-07-15T12:18:27.610Z,30.73
2018-07-15T12:20:56.254Z,30.29
2018-07-15T12:23:24.885Z,30.48
2018-07-15T12:25:53.553Z,30.75
2018-07-15T12:28:22.318Z,30.90
2018-07-15T12:30:50.967Z,31.38
2018-07-15T12:33:19.658Z,31.28
2018-07-15T12:35:48.382Z,31.71
2018-07-15T12:38:17.083Z,31.87
2018-07-15T12:40:45.719Z,31.49
2018-07-15T12:43:14.379Z,31.84
2018-07-15T12:45:43.115Z,31.95
2018-07-15T12:48:11.845Z,31.84
2018-07-15T12:50:40.486Z,32.11
2018-07-15T12:53:09.230Z,31.38
2018-07-15T12:55:37.948Z,31.74
2018-07-15T12:58:06.707Z,32.43
2018-07-15T13:00:35.502Z,32.38
2018-07-15T13:03:04.297Z,31.64
2018-07-15T13:05:32.972Z,31.09
2018-07-15T13:08:01.613Z,31.08
2018-07-15T13:10:30.531Z,31.49
2018-07-15T13:12:59.291Z,31.28
2018-07-15T13:15:27.996Z,32.31
2018-07-15T13:17:56.650Z,32.93
2018-07-15T13:20:25.299Z,33.77
2018-07-15T13:22:53.987Z,34.13
2018-07-15T13:25:23.239Z,34.40
2018-07-15T13:27:51.912Z,34.50
2018-07-15T13:30:20.721Z,33.56
2018-07-15T13:32:49.390Z,33.55
2018-07-15T13:35:18.198Z,33.41
2018-07-15T13:37:46.823Z,33.17
2018-07-15T13:40:15.619Z,33.06
2018-07-15T13:42:44.497Z,33.44
2018-07-15T13:45:13.123Z,33.25
2018-07-15T13:47:41.764Z,32.66
2018-07-15T13:50:10.418Z,32.93
2018-07-15T13:52:39.073Z,32.48
2018-07-15T13:55:07.738Z,32.73
2018-07-15T13:57:36.416Z,33.58
2018-07-15T14:00:06.574Z,33.82
2018-07-15T14:02:35.149Z,33.62
2018-07-15T14:05:03.788Z,33.28
2018-07-15T14:07:32.398Z,32.71
2018-07-15T14:10:01.012Z,32.38
2018-07-15T14:12:29.797Z,31.99
2018-07-15T14:14:58.487Z,31.84
2018-07-15T14:17:27.329Z,31.33
2018-07-15T14:19:55.964Z,30.75
2018-07-15T14:22:24.631Z,30.46
2018-07-15T14:24:53.258Z,29.86
2018-07-15T14:27:22.053Z,29.84
2018-07-15T14:29:50.714Z,31.51
2018-07-15T14:32:19.497Z,33.04
2018-07-15T14:34:48.287Z,34.32
2018-07-15T14:37:16.943Z,35.34
2018-07-15T14:39:45.537Z,35.04
2018-07-15T14:42:14.263Z,36.31
2018-07-15T14:44:42.912Z,37.34
2018-07-15T14:47:11.770Z,37.48
2018-07-15T14:49:41.423Z,37.45
2018-07-15T14:52:10.079Z,38.58
2018-07-15T14:54:38.699Z,38.93
2018-07-15T14:57:07.409Z,39.54
2018-07-15T14:59:36.039Z,39.71
2018-07-15T15:02:05.897Z,38.68
2018-07-15T15:04:34.521Z,39.99
2018-07-15T15:07:03.267Z,39.31
2018-07-15T15:09:31.923Z,40.54
2018-07-15T15:12:00.560Z,39.75
2018-07-15T15:14:29.324Z,37.76
2018-07-15T15:16:58.026Z,36.30
2018-07-15T15:19:26.682Z,34.41
2018-07-15T15:21:55.333Z,34.97
2018-07-15T15:24:24.060Z,36.73
2018-07-15T15:26:52.721Z,37.45
2018-07-15T15:29:21.377Z,38.04
2018-07-15T15:31:50.129Z,39.48
2018-07-15T15:34:18.946Z,39.38
2018-07-15T15:36:47.656Z,38.94
2018-07-15T15:39:16.998Z,38.71
2018-07-15T15:41:45.747Z,37.59
2018-07-15T15:44:14.486Z,36.01
2018-07-15T15:46:43.764Z,35.06
2018-07-15T15:49:12.423Z,34.39
2018-07-15T15:51:41.708Z,35.71
2018-07-15T15:54:10.469Z,36.06
2018-07-15T15:56:39.165Z,35.06
2018-07-15T15:59:07.898Z,34.32
2018-07-15T16:01:36.560Z,33.92
2018-07-15T16:04:05.253Z,35.75
2018-07-15T16:06:33.978Z,37.02
2018-07-15T16:09:02.770Z,36.80
2018-07-15T16:11:31.454Z,36.06
2018-07-15T16:14:00.099Z,35.11
2018-07-15T16:16:28.769Z,35.20
2018-07-15T16:18:57.470Z,36.39
2018-07-15T16:21:26.202Z,36.54
2018-07-15T16:23:54.873Z,36.30
2018-07-15T16:26:23.608Z,34.86
2018-07-15T16:28:52.309Z,34.25
2018-07-15T16:31:21.001Z,34.39
2018-07-15T16:33:49.775Z,34.91
2018-07-15T16:36:18.451Z,35.96
2018-07-15T16:38:47.420Z,36.79
2018-07-15T16:41:16.108Z,37.07
2018-07-15T16:43:44.794Z,36.90
2018-07-15T16:46:13.529Z,36.70
2018-07-15T16:48:42.174Z,36.03
2018-07-15T16:51:10.860Z,36.15
2018-07-15T16:53:39.510Z,36.40
2018-07-15T16:56:08.247Z,37.05
2018-07-15T16:58:36.960Z,37.11
2018-07-15T17:01:05.607Z,36.26
2018-07-15T17:03:34.290Z,35.68
2018-07-15T17:06:02.970Z,35.97
2018-07-15T17:08:31.673Z,35.34
2018-07-15T17:11:00.313Z,35.05
2018-07-15T17:13:28.941Z,35.32
2018-07-15T17:15:57.631Z,36.54
2018-07-15T17:18:26.936Z,37.61
2018-07-15T17:20:56.814Z,37.85
2018-07-15T17:23:25.498Z,37.64
2018-07-15T17:25:54.437Z,37.30
2018-07-15T17:28:23.208Z,36.61
2018-07-15T17:30:51.882Z,34.46
2018-07-15T17:33:21.668Z,34.28
2018-07-15T17:35:50.345Z,33.78
2018-07-15T17:38:19.107Z,34.52
2018-07-15T17:40:47.879Z,34.45
2018-07-15T17:43:16.824Z,34.18
2018-07-15T17:45:45.783Z,34.61
2018-07-15T17:48:14.490Z,34.40
2018-07-15T17:50:43.139Z,34.75
2018-07-15T17:53:11.901Z,34.44
2018-07-15T17:55:41.203Z,33.34
2018-07-15T17:58:10.094Z,32.83
2018-07-15T18:00:38.750Z,31.67
2018-07-15T18:03:07.508Z,30.80
2018-07-15T18:05:36.302Z,30.22
2018-07-15T18:08:05.213Z,29.53
2018-07-15T18:10:34.342Z,29.35
2018-07-15T18:13:03.108Z,29.03
2018-07-15T18:15:32.494Z,28.69
2018-07-15T18:18:01.153Z,28.37
2018-07-15T18:20:29.896Z,28.10
2018-07-15T18:22:58.603Z,27.84
2018-07-15T18:25:27.227Z,27.52
2018-07-15T18:27:56.243Z,27.34
2018-07-15T18:30:25.181Z,27.12
2018-07-15T18:32:54.282Z,26.93
2018-07-15T18:35:23.021Z,26.76
2018-07-15T18:37:51.621Z,26.68
2018-07-15T18:40:21.388Z,26.47
2018-07-15T18:42:50.129Z,26.32
2018-07-15T18:45:19.271Z,26.27
2018-07-15T18:47:53.620Z,26.10
2018-07-15T18:50:23.597Z,26.05
2018-07-15T18:52:52.281Z,25.90
2018-07-15T18:55:21.009Z,25.86
2018-07-15T18:57:49.721Z,25.78
2018-07-15T19:00:18.537Z,25.70
2018-07-15T19:02:47.265Z,25.68
2018-07-15T19:05:15.950Z,25.46
2018-07-15T19:07:44.586Z,25.34
2018-07-15T19:10:14.957Z,25.23
2018-07-15T19:12:43.670Z,25.24
2018-07-15T19:15:12.450Z,25.21
2018-07-15T19:17:41.283Z,25.11
2018-07-15T19:20:09.945Z,25.15
2018-07-15T19:22:38.657Z,25.19
2018-07-15T19:25:07.451Z,25.09
2018-07-15T19:27:36.079Z,25.08
2018-07-15T19:30:05.164Z,25.04
2018-07-15T19:32:33.965Z,25.02
2018-07-15T19:35:02.644Z,24.96
2018-07-15T19:37:31.970Z,25.00
2018-07-15T19:40:00.586Z,25.07
2018-07-15T19:42:29.286Z,25.09
2018-07-15T19:44:57.880Z,25.11
2018-07-15T19:47:26.732Z,25.10
2018-07-15T19:49:55.341Z,25.12
2018-07-15T19:52:24.965Z,25.08
2018-07-15T19:54:54.294Z,25.09
2018-07-15T19:57:23.015Z,25.07
2018-07-15T19:59:55.607Z,25.02
2018-07-15T20:02:24.433Z,25.14
2018-07-15T20:04:54.237Z,25.14
2018-07-15T20:07:23.453Z,25.14
2018-07-15T20:09:52.204Z,25.12
2018-07-15T20:12:20.858Z,24.99
2018-07-15T20:14:49.889Z,24.99
2018-07-15T20:17:18.505Z,25.04
2018-07-15T20:19:47.210Z,25.06
2018-07-15T20:22:15.793Z,24.95
2018-07-15T20:24:44.540Z,24.88
2018-07-15T20:27:13.278Z,25.01
2018-07-15T20:29:42.128Z,25.03
2018-07-15T20:32:11.436Z,24.92
2018-07-15T20:34:40.799Z,24.89
2018-07-15T20:37:09.505Z,24.89
2018-07-15T20:39:38.113Z,24.82
2018-07-15T20:42:06.983Z,24.60
2018-07-15T20:44:35.592Z,24.54
2018-07-15T20:47:04.316Z,24.46
2018-07-15T20:49:33.110Z,24.35
2018-07-15T20:52:01.984Z,24.25
2018-07-15T20:54:30.677Z,24.19
2018-07-15T20:56:59.352Z,24.09
2018-07-15T20:59:28.174Z,23.90
2018-07-15T21:01:56.910Z,23.71
2018-07-15T21:04:25.881Z,23.57
2018-07-15T21:06:54.488Z,23.58
2018-07-15T21:09:23.091Z,23.66
2018-07-15T21:11:52.020Z,23.90
2018-07-15T21:14:20.706Z,24.08
2018-07-15T21:16:49.624Z,24.18
2018-07-15T21:19:18.249Z,24.07
2018-07-15T21:21:46.950Z,23.96
2018-07-15T21:24:16.319Z,24.02
2018-07-15T21:26:44.909Z,24.02
2018-07-15T21:29:13.547Z,23.93
2018-07-15T21:31:42.234Z,23.70
2018-07-15T21:34:10.878Z,23.46
2018-07-15T21:36:39.496Z,23.24
2018-07-15T21:39:08.745Z,23.11
2018-07-15T21:41:37.477Z,23.02
2018-07-15T21:44:06.205Z,22.94
2018-07-15T21:46:34.754Z,22.82
2018-07-15T21:49:03.536Z,22.67
2018-07-15T21:51:32.370Z,22.54
2018-07-15T21:54:00.979Z,22.40
2018-07-15T21:56:29.676Z,22.31
2018-07-15T21:58:58.310Z,22.18
2018-07-15T22:01:38.316Z,22.14
2018-07-15T22:04:07.640Z,22.13
2018-07-15T22:06:47.190Z,22.09
2018-07-15T22:09:27.425Z,21.97
2018-07-15T22:11:56.119Z,21.87
2018-07-15T22:14:24.721Z,21.79
2018-07-15T22:16:53.417Z,21.74
2018-07-15T22:19:22.040Z,21.77
2018-07-15T22:21:50.758Z,21.92
2018-07-15T22:24:19.385Z,21.89
2018-07-15T22:26:48.010Z,21.89
2018-07-15T22:29:16.638Z,21.77
2018-07-15T22:31:45.239Z,21.57
2018-07-15T22:34:13.863Z,21.43
2018-07-15T22:36:42.467Z,21.33
2018-07-15T22:39:11.137Z,21.28
2018-07-15T22:41:39.817Z,21.25
2018-07-15T22:44:08.499Z,21.15
2018-07-15T22:46:37.106Z,21.09
2018-07-15T22:49:05.697Z,21.08
2018-07-15T22:51:34.310Z,21.07
2018-07-15T22:54:03.288Z,21.21
2018-07-15T22:56:32.646Z,21.19
2018-07-15T22:59:01.539Z,21.19
2018-07-15T23:01:30.362Z,21.21
2018-07-15T23:03:59.098Z,21.28
2018-07-15T23:06:27.728Z,21.27
2018-07-15T23:08:56.328Z,21.18
2018-07-15T23:11:25.016Z,21.12
2018-07-15T23:13:53.668Z,21.00
2018-07-15T23:16:22.298Z,20.98
2018-07-15T23:18:50.973Z,20.95
2018-07-15T23:21:19.647Z,20.97
2018-07-15T23:23:48.286Z,20.97
2018-07-15T23:26:17.549Z,21.03
2018-07-15T23:28:46.896Z,21.08
2018-07-15T23:31:15.534Z,21.09
2018-07-15T23:33:44.809Z,21.27
2018-07-15T23:36:19.779Z,21.22
2018-07-15T23:38:48.437Z,21.16
2018-07-15T23:41:17.022Z,21.68
2018-07-15T23:43:45.663Z,21.73
2018-07-15T23:46:14.644Z,21.74
2018-07-15T23:48:43.241Z,22.10
2018-07-15T23:51:11.836Z,22.00
2018-07-15T23:53:40.441Z,21.92
2018-07-15T23:56:09.098Z,21.85
2018-07-15T23:58:37.790Z,21.86
